sensor_id;sensor_type;location;lat;lon;timestamp;P1;durP1;ratioP1;P2;durP2;ratioP2
39082;SDS011;24834;44.444;26.098;2023-03-14T00:05:06;40.50;;;37.25;;
39082;SDS011;24834;44.444;26.098;2023-03-14T00:11:17;35.00;;;31.75;;
39082;SDS011;24834;44.444;26.098;2023-03-14T00:17:26;35.00;;;31.67;;
39082;SDS011;24834;44.444;26.098;2023-03-14T00:23:31;27.25;;;24.50;;
39082;SDS011;24834;44.444;26.098;2023-03-14T00:29:39;30.75;;;25.50;;
39082;SDS011;24834;44.444;26.098;2023-03-14T00:35:54;29.00;;;24.50;;
39082;SDS011;24834;44.444;26.098;2023-03-14T00:42:05;17.50;;;16.25;;
39082;SDS011;24834;44.444;26.098;2023-03-14T00:48:15;14.75;;;13.50;;
39082;SDS011;24834;44.444;26.098;2023-03-14T00:54:23;16.50;;;16.00;;
39082;SDS011;24834;44.444;26.098;2023-03-14T01:00:27;36.00;;;32.00;;
39082;SDS011;24834;44.444;26.098;2023-03-14T01:06:32;45.50;;;42.75;;
39082;SDS011;24834;44.444;26.098;2023-03-14T01:12:35;50.00;;;45.75;;
39082;SDS011;24834;44.444;26.098;2023-03-14T01:18:40;41.75;;;37.25;;
39082;SDS011;24834;44.444;26.098;2023-03-14T01:24:45;18.75;;;17.50;;
39082;SDS011;24834;44.444;26.098;2023-03-14T01:30:50;18.75;;;18.75;;
39082;SDS011;24834;44.444;26.098;2023-03-14T01:36:53;17.25;;;17.25;;
39082;SDS011;24834;44.444;26.098;2023-03-14T01:43:05;14.00;;;14.00;;
39082;SDS011;24834;44.444;26.098;2023-03-14T01:49:28;11.75;;;11.00;;
39082;SDS011;24834;44.444;26.098;2023-03-14T01:55:44;12.25;;;12.25;;
39082;SDS011;24834;44.444;26.098;2023-03-14T02:01:47;19.50;;;19.00;;
39082;SDS011;24834;44.444;26.098;2023-03-14T02:07:54;17.75;;;16.00;;
39082;SDS011;24834;44.444;26.098;2023-03-14T02:14:10;15.50;;;15.00;;
39082;SDS011;24834;44.444;26.098;2023-03-14T02:27:48;15.00;;;13.25;;
39082;SDS011;24834;44.444;26.098;2023-03-14T02:33:52;17.00;;;15.25;;
39082;SDS011;24834;44.444;26.098;2023-03-14T02:40:05;19.00;;;17.00;;
39082;SDS011;24834;44.444;26.098;2023-03-14T02:46:12;18.50;;;18.00;;
39082;SDS011;24834;44.444;26.098;2023-03-14T02:52:19;17.25;;;17.25;;
39082;SDS011;24834;44.444;26.098;2023-03-14T02:58:26;15.75;;;14.75;;
39082;SDS011;24834;44.444;26.098;2023-03-14T03:04:39;20.00;;;15.75;;
39082;SDS011;24834;44.444;26.098;2023-03-14T03:10:43;23.50;;;19.00;;
39082;SDS011;24834;44.444;26.098;2023-03-14T03:16:48;30.75;;;25.50;;
39082;SDS011;24834;44.444;26.098;2023-03-14T03:22:53;28.50;;;25.25;;
39082;SDS011;24834;44.444;26.098;2023-03-14T03:28:56;32.75;;;26.75;;
39082;SDS011;24834;44.444;26.098;2023-03-14T03:35:01;34.75;;;28.50;;
39082;SDS011;24834;44.444;26.098;2023-03-14T03:41:07;18.50;;;13.75;;
39082;SDS011;24834;44.444;26.098;2023-03-14T03:47:12;16.25;;;16.25;;
39082;SDS011;24834;44.444;26.098;2023-03-14T03:53:19;16.50;;;16.50;;
39082;SDS011;24834;44.444;26.098;2023-03-14T03:59:42;16.50;;;15.75;;
39082;SDS011;24834;44.444;26.098;2023-03-14T04:06:02;18.75;;;16.50;;
39082;SDS011;24834;44.444;26.098;2023-03-14T04:12:11;16.50;;;15.00;;
